Time;durP1;ratioP1;P1;durP2;ratioP2;P2;SDS_P1;SDS_P2;PMS_P1;PMS_P2;Temp;Humidity;BMP_temperature;BMP_pressure;BME280_temperature;BME280_humidity;BME280_pressure;Samples;Min_cycle;Max_cycle;Signal;HPM_P1;HPM_P2
2023/01/25 00:00:08;;;;;;;88.68;59.50;;;;;;;3.02;65.02;103650.78;5049050;28;20852;-69
2023/01/25 00:02:33;;;;;;;87.10;58.95;;;;;;;3.01;64.86;103654.53;5047807;28;20029;-76
2023/01/25 00:04:58;;;;;;;92.40;62.45;;;;;;;3.04;64.74;103643.28;5036436;28;20022;-68
2023/01/25 00:07:24;;;;;;;89.78;61.05;;;;;;;3.05;64.77;103646.91;5039021;28;20469;-59
2023/01/25 00:09:49;;;;;;;90.97;60.22;;;;;;;3.05;64.63;103641.41;5044741;28;20040;-68
2023/01/25 00:12:14;;;;;;;90.90;61.67;;;;;;;3.05;64.24;103645.00;5033400;28;20024;-71
2023/01/25 00:14:39;;;;;;;86.78;59.75;;;;;;;3.03;64.23;103636.06;5041583;28;20067;-71
2023/01/25 00:17:05;;;;;;;91.95;60.38;;;;;;;2.99;64.17;103637.34;5046132;28;20025;-71
2023/01/25 00:19:30;;;;;;;91.32;60.33;;;;;;;3.00;64.24;103641.81;5045941;28;20048;-72
2023/01/25 00:21:55;;;;;;;92.22;61.95;;;;;;;3.01;63.81;103643.53;5043189;28;20060;-70
2023/01/25 00:24:26;;;;;;;92.63;60.85;;;;;;;3.01;64.03;103643.53;5038180;28;20375;-69
2023/01/25 00:26:52;;;;;;;91.55;60.15;;;;;;;3.02;64.32;103634.31;5047013;28;20028;-69
2023/01/25 00:29:17;;;;;;;91.55;60.38;;;;;;;3.00;64.81;103641.81;5035604;28;20033;-69
2023/01/25 00:31:55;;;;;;;94.93;62.05;;;;;;;3.01;65.08;103643.53;5044355;28;20029;-70
2023/01/25 00:34:23;;;;;;;92.63;61.53;;;;;;;3.02;65.06;103645.28;5046038;28;20033;-70
2023/01/25 00:36:51;;;;;;;90.75;59.58;;;;;;;3.00;64.97;103639.06;5049090;28;20106;-70
2023/01/25 00:39:16;;;;;;;91.07;60.83;;;;;;;3.02;65.21;103633.44;5046336;28;20128;-70
2023/01/25 00:41:42;;;;;;;93.78;62.17;;;;;;;3.02;64.46;103633.44;5037737;28;20036;-70
2023/01/25 00:44:08;;;;;;;95.40;62.40;;;;;;;2.99;64.25;103629.09;5035422;28;20089;-68
2023/01/25 00:46:33;;;;;;;98.70;64.38;;;;;;;2.98;64.34;103631.97;5048209;28;20067;-68
2023/01/25 00:48:59;;;;;;;97.57;64.35;;;;;;;3.00;65.17;103624.50;5048537;28;20025;-69
2023/01/25 00:51:24;;;;;;;98.90;62.38;;;;;;;2.99;64.63;103634.59;5036161;28;20040;-69
2023/01/25 00:53:50;;;;;;;100.38;65.13;;;;;;;2.99;64.67;103631.84;5030753;28;20033;-69
2023/01/25 00:56:15;;;;;;;97.57;62.92;;;;;;;2.97;64.34;103631.09;5029818;28;20385;-69
2023/01/25 00:58:41;;;;;;;93.93;63.55;;;;;;;2.98;65.00;103630.09;5027922;28;20150;-70
2023/01/25 01:01:07;;;;;;;97.53;64.35;;;;;;;2.95;65.11;103623.03;5037415;28;20380;-67
2023/01/25 01:03:33;;;;;;;95.72;63.03;;;;;;;2.96;64.57;103623.88;5043727;28;20032;-69
2023/01/25 01:06:10;;;;;;;101.68;65.20;;;;;;;3.00;64.33;103616.25;5043682;28;20036;-70
2023/01/25 01:08:39;;;;;;;100.72;66.00;;;;;;;2.97;65.05;103620.13;5048515;28;20028;-70
2023/01/25 01:11:07;;;;;;;98.68;64.65;;;;;;;2.97;65.16;103611.91;5033680;28;20033;-71
2023/01/25 01:13:32;;;;;;;100.28;64.28;;;;;;;2.99;64.35;103617.25;5040008;28;20110;-70
2023/01/25 01:16:03;;;;;;;104.20;67.63;;;;;;;2.99;64.62;103611.75;5044536;28;20074;-70
2023/01/25 01:18:36;;;;;;;107.15;68.30;;;;;;;3.02;64.45;103615.09;5050141;28;20043;-69
2023/01/25 01:21:02;;;;;;;103.82;64.57;;;;;;;2.98;64.90;103615.50;5051401;28;20519;-71
2023/01/25 01:23:28;;;;;;;106.45;68.18;;;;;;;2.94;64.62;103618.50;5052032;28;20033;-71
2023/01/25 01:25:54;;;;;;;112.40;69.07;;;;;;;2.99;64.93;103614.50;5051465;28;20062;-70
2023/01/25 01:28:19;;;;;;;107.07;68.63;;;;;;;2.99;64.79;103612.66;5052306;28;20523;-71
2023/01/25 01:30:44;;;;;;;107.75;68.55;;;;;;;2.98;65.04;103610.88;5048162;28;20033;-71
2023/01/25 01:33:13;;;;;;;107.93;68.95;;;;;;;2.96;64.85;103618.41;5034790;28;20058;-71
2023/01/25 01:35:38;;;;;;;109.70;68.70;;;;;;;2.95;64.97;103613.94;5032364;28;20471;-70
2023/01/25 01:38:09;;;;;;;105.57;65.68;;;;;;;2.97;65.01;103614.63;5031892;28;20132;-71
2023/01/25 01:40:34;;;;;;;108.50;67.43;;;;;;;2.98;65.11;103621.88;5031470;28;20041;-71
2023/01/25 01:43:17;;;;;;;103.82;67.50;;;;;;;2.98;64.68;103613.63;5032368;28;20030;-70
2023/01/25 01:45:43;;;;;;;106.15;68.18;;;;;;;2.95;65.22;103614.78;5040283;28;20031;-71
2023/01/25 01:48:18;;;;;;;104.30;66.93;;;;;;;2.97;65.30;103620.13;5050350;28;20128;-70
2023/01/25 01:50:45;;;;;;;105.57;67.18;;;;;;;2.94;64.92;103621.25;5037103;28;20044;-71
2023/01/25 01:53:10;;;;;;;115.45;70.30;;;;;;;2.91;65.22;103621.56;5031518;28;20116;-71
2023/01/25 01:55:36;;;;;;;107.57;68.35;;;;;;;2.94;64.71;103620.41;5031665;28;20125;-70
2023/01/25 01:58:03;;;;;;;107.63;66.72;;;;;;;2.91;64.92;103620.69;5031359;28;20454;-71
2023/01/25 02:00:33;;;;;;;107.85;67.85;;;;;;;2.95;64.85;103619.41;5034387;28;20033;-71
2023/01/25 02:02:59;;;;;;;109.10;68.40;;;;;;;2.96;64.82;103618.41;5050348;28;20032;-71
2023/01/25 02:05:50;;;;;;;108.65;67.93;;;;;;;3.02;64.54;103619.72;5050429;28;20045;-70
2023/01/25 02:08:16;;;;;;;110.03;66.85;;;;;;;2.98;64.23;103615.50;5043828;28;20040;-71
2023/01/25 02:10:43;;;;;;;111.75;69.55;;;;;;;2.97;64.58;103614.63;5034231;28;20022;-70
2023/01/25 02:13:09;;;;;;;109.47;67.13;;;;;;;2.96;64.41;103612.91;5031891;28;20022;-70
2023/01/25 02:15:43;;;;;;;116.20;68.25;;;;;;;2.96;64.26;103612.91;5030511;28;20520;-70
2023/01/25 02:18:09;;;;;;;108.95;66.95;;;;;;;2.91;64.53;103615.19;5031674;28;20021;-70
2023/01/25 02:20:41;;;;;;;113.15;70.63;;;;;;;2.89;64.77;103612.56;5046505;28;20039;-70
2023/01/25 02:23:24;;;;;;;109.72;68.25;;;;;;;2.92;64.29;103612.31;5050374;28;20380;-70
2023/01/25 02:25:50;;;;;;;108.38;67.03;;;;;;;2.89;64.45;103603.47;5039860;28;20626;-71
2023/01/25 02:28:46;;;;;;;114.13;70.78;;;;;;;2.92;64.46;103606.81;5042081;28;20037;-70
2023/01/25 02:31:12;;;;;;;114.22;66.72;;;;;;;2.89;64.15;103604.34;5033070;28;20048;-70
2023/01/25 02:33:37;;;;;;;112.55;69.03;;;;;;;2.91;64.06;103593.25;5033132;28;20108;-70
2023/01/25 02:36:05;;;;;;;118.10;72.45;;;;;;;2.90;64.47;103596.97;5044784;28;20021;-70
2023/01/25 02:38:33;;;;;;;119.82;71.65;;;;;;;2.89;64.77;103600.72;5053422;28;20053;-70
2023/01/25 02:41:07;;;;;;;118.75;72.32;;;;;;;2.88;64.76;103588.03;5053846;28;20465;-70
2023/01/25 02:43:34;;;;;;;121.35;72.70;;;;;;;2.88;64.78;103579.81;5052663;28;20058;-69
2023/01/25 02:46:13;;;;;;;118.43;70.22;;;;;;;2.92;64.90;103584.88;5059904;28;20099;-70
2023/01/25 02:48:38;;;;;;;113.10;68.10;;;;;;;2.91;64.31;103579.53;5059707;28;20488;-70
2023/01/25 02:51:06;;;;;;;113.53;69.50;;;;;;;2.89;64.68;103576.03;5062590;28;20029;-70
2023/01/25 02:53:31;;;;;;;114.43;71.03;;;;;;;2.90;65.17;103577.78;5054510;28;20035;-70
2023/01/25 02:55:57;;;;;;;114.47;71.05;;;;;;;2.87;64.93;103580.78;5054776;28;20025;-70
2023/01/25 02:58:22;;;;;;;121.93;71.95;;;;;;;2.87;65.29;103581.69;5053143;28;20107;-70
2023/01/25 03:00:47;;;;;;;118.95;72.35;;;;;;;2.83;64.63;103584.81;5047938;28;20028;-70
2023/01/25 03:03:16;;;;;;;120.03;70.95;;;;;;;2.85;65.14;103580.94;5045718;28;20838;-70
2023/01/25 03:05:42;;;;;;;117.57;70.70;;;;;;;2.82;64.58;103583.06;5052689;28;20108;-70
2023/01/25 03:08:11;;;;;;;113.43;69.88;;;;;;;2.83;65.20;103573.81;5052592;28;20017;-70
2023/01/25 03:10:36;;;;;;;116.65;72.05;;;;;;;2.80;65.33;103571.38;5051969;28;20037;-70
2023/01/25 03:13:01;;;;;;;121.53;72.72;;;;;;;2.82;65.05;103577.59;5053362;28;20025;-70
2023/01/25 03:15:27;;;;;;;118.70;71.97;;;;;;;2.83;64.79;103571.97;5052712;28;20460;-71
2023/01/25 03:17:52;;;;;;;118.10;71.15;;;;;;;2.81;65.74;103570.38;5043072;28;20087;-70
2023/01/25 03:20:18;;;;;;;118.20;71.25;;;;;;;2.81;65.57;103565.75;5052165;28;20136;-70
2023/01/25 03:22:43;;;;;;;118.80;71.00;;;;;;;2.83;65.46;103562.84;5052652;28;20439;-70
2023/01/25 03:25:08;;;;;;;121.70;73.43;;;;;;;2.82;65.59;103564.75;5053156;28;20375;-70
2023/01/25 03:27:34;;;;;;;114.43;69.60;;;;;;;2.82;65.18;103563.88;5053917;28;20039;-70
2023/01/25 03:29:59;;;;;;;121.07;72.32;;;;;;;2.82;64.60;103555.63;5053094;28;20081;-69
2023/01/25 03:32:24;;;;;;;122.75;72.78;;;;;;;2.81;64.55;103552.03;5051192;28;20033;-70
2023/01/25 03:34:49;;;;;;;116.88;72.15;;;;;;;2.81;64.82;103545.69;5046972;28;20051;-70
2023/01/25 03:37:15;;;;;;;118.18;71.18;;;;;;;2.81;65.41;103537.47;5036245;28;21081;-69
2023/01/25 03:39:40;;;;;;;124.43;75.60;;;;;;;2.82;64.67;103533.69;5053191;28;20033;-69
2023/01/25 03:42:06;;;;;;;116.70;70.57;;;;;;;2.79;64.81;103533.97;5051699;28;20045;-70
2023/01/25 03:44:31;;;;;;;121.35;73.15;;;;;;;2.77;64.69;103539.59;5052263;28;20373;-71
2023/01/25 03:46:56;;;;;;;121.10;73.97;;;;;;;2.77;64.74;103538.72;5051997;28;20168;-70
2023/01/25 03:49:26;;;;;;;124.10;74.15;;;;;;;2.74;65.30;103539.00;5052316;28;20035;-69
2023/01/25 03:51:52;;;;;;;124.38;74.88;;;;;;;2.74;64.95;103539.88;5051985;28;20024;-70
2023/01/25 03:54:17;;;;;;;122.57;73.43;;;;;;;2.77;64.89;103536.84;5040880;28;20568;-69
2023/01/25 03:56:43;;;;;;;120.13;71.65;;;;;;;2.78;65.35;103535.84;5032681;28;20021;-69
2023/01/25 03:59:10;;;;;;;123.55;74.32;;;;;;;2.77;64.95;103547.81;5040753;28;20032;-70
2023/01/25 04:01:35;;;;;;;121.93;72.75;;;;;;;2.78;65.49;103544.06;5051267;28;20033;-70
2023/01/25 04:04:00;;;;;;;122.20;73.80;;;;;;;2.81;65.63;103548.44;5033016;28;20028;-71
2023/01/25 04:06:26;;;;;;;118.65;71.47;;;;;;;2.78;64.96;103541.31;5031677;28;20110;-70
2023/01/25 04:08:51;;;;;;;123.97;74.68;;;;;;;2.79;65.53;103539.44;5041087;28;20122;-71
2023/01/25 04:11:16;;;;;;;125.55;72.97;;;;;;;2.78;64.87;103529.50;5040091;28;20061;-70
2023/01/25 04:13:42;;;;;;;120.95;72.82;;;;;;;2.78;65.44;103534.97;5043539;28;20029;-70
2023/01/25 04:16:10;;;;;;;129.32;73.78;;;;;;;2.77;65.63;103527.75;5050386;28;20606;-71
2023/01/25 04:18:35;;;;;;;122.25;73.55;;;;;;;2.79;65.39;103525.72;5054239;28;20025;-71
2023/01/25 04:21:01;;;;;;;119.95;70.30;;;;;;;2.76;64.91;103529.63;5053316;28;20904;-70
2023/01/25 04:23:26;;;;;;;117.25;70.03;;;;;;;2.76;65.65;103524.16;5054758;28;20036;-71
2023/01/25 04:25:56;;;;;;;119.68;69.25;;;;;;;2.75;65.27;103522.44;5054538;28;20087;-70
2023/01/25 04:28:26;;;;;;;118.53;71.10;;;;;;;2.75;64.70;103527.00;5053298;28;20036;-70
2023/01/25 04:30:53;;;;;;;122.03;72.63;;;;;;;2.74;65.10;103522.53;5048281;28;20032;-71
2023/01/25 04:33:25;;;;;;;124.53;72.15;;;;;;;2.70;64.91;103525.53;5053554;28;20040;-70
2023/01/25 04:35:59;;;;;;;121.63;70.88;;;;;;;2.77;64.82;103527.75;5053094;28;20396;-70
2023/01/25 04:38:24;;;;;;;123.68;73.03;;;;;;;2.74;65.07;103528.03;5053365;28;20051;-70
2023/01/25 04:40:51;;;;;;;120.82;71.43;;;;;;;2.69;64.67;103526.56;5052733;28;20041;-70
2023/01/25 04:43:18;;;;;;;120.43;70.80;;;;;;;2.68;64.82;103521.22;5053033;28;20429;-71
2023/01/25 04:45:49;;;;;;;126.65;71.85;;;;;;;2.65;64.58;103526.97;5045731;28;20028;-71
2023/01/25 04:48:15;;;;;;;124.60;71.17;;;;;;;2.63;64.80;103523.47;5053696;28;20141;-70
2023/01/25 04:50:41;;;;;;;124.85;72.45;;;;;;;2.59;64.52;103525.63;5053231;28;20100;-70
2023/01/25 04:53:08;;;;;;;117.80;69.90;;;;;;;2.59;65.01;103520.13;5052535;28;20036;-71
2023/01/25 04:55:35;;;;;;;115.75;69.65;;;;;;;2.59;64.60;103516.53;5052991;28;20029;-70
2023/01/25 04:58:02;;;;;;;117.82;70.40;;;;;;;2.61;64.97;103514.53;5052797;28;20032;-70
2023/01/25 05:00:28;;;;;;;115.25;68.13;;;;;;;2.60;65.23;103516.41;5051725;28;20021;-70
2023/01/25 05:02:53;;;;;;;119.80;70.30;;;;;;;2.57;65.35;103510.34;5034568;28;20040;-71
2023/01/25 05:05:19;;;;;;;118.68;69.00;;;;;;;2.57;65.33;103511.19;5032722;28;20180;-70
2023/01/25 05:07:44;;;;;;;118.68;69.00;;;;;;;2.55;64.71;103501.34;5032879;28;20048;-71
2023/01/25 05:10:10;;;;;;;119.00;70.82;;;;;;;2.57;65.32;103497.50;5046050;28;20108;-71
2023/01/25 05:12:35;;;;;;;117.45;67.70;;;;;;;2.57;65.31;103491.13;5052971;28;20013;-70
2023/01/25 05:15:18;;;;;;;118.32;68.50;;;;;;;2.60;64.99;103499.97;5053252;28;20058;-70
2023/01/25 05:17:44;;;;;;;114.35;66.72;;;;;;;2.54;65.27;103491.41;5051772;28;20060;-70
2023/01/25 05:20:09;;;;;;;116.97;69.22;;;;;;;2.55;64.64;103491.25;5045935;28;20049;-70
2023/01/25 05:22:35;;;;;;;110.15;65.50;;;;;;;2.56;65.36;103490.28;5049871;28;20499;-70
2023/01/25 05:25:01;;;;;;;110.25;65.10;;;;;;;2.56;64.54;103501.25;5052216;28;20025;-70
2023/01/25 05:27:27;;;;;;;113.75;68.18;;;;;;;2.56;65.30;103487.53;5051491;28;20041;-70
2023/01/25 05:29:52;;;;;;;114.88;68.60;;;;;;;2.54;64.88;103486.78;5034856;28;20035;-70
2023/01/25 05:32:20;;;;;;;111.70;66.70;;;;;;;2.54;65.38;103495.00;5051838;28;20127;-70
2023/01/25 05:34:46;;;;;;;110.32;65.65;;;;;;;2.51;64.87;103489.78;5052638;28;20083;-71
2023/01/25 05:37:14;;;;;;;110.68;65.07;;;;;;;2.49;64.65;103480.84;5051680;28;20041;-70
2023/01/25 05:39:40;;;;;;;114.70;66.88;;;;;;;2.51;64.74;103487.03;5033224;28;20040;-71
2023/01/25 05:42:11;;;;;;;116.13;68.45;;;;;;;2.53;65.20;103486.94;5032277;28;20029;-71
2023/01/25 05:44:36;;;;;;;112.68;66.47;;;;;;;2.52;65.00;103488.81;5049670;28;20037;-70
2023/01/25 05:47:02;;;;;;;112.20;67.43;;;;;;;2.49;64.97;103483.59;5051205;28;20057;-71
2023/01/25 05:49:27;;;;;;;112.95;66.07;;;;;;;2.49;64.48;103477.25;5051761;28;20032;-70
2023/01/25 05:51:52;;;;;;;117.38;67.32;;;;;;;2.53;64.61;103484.19;5050927;28;20135;-70
2023/01/25 05:54:24;;;;;;;112.25;67.22;;;;;;;2.55;65.02;103479.41;5049160;28;20071;-70
2023/01/25 05:56:49;;;;;;;111.53;66.30;;;;;;;2.54;64.91;103484.03;5044307;28;20032;-70
2023/01/25 05:59:17;;;;;;;114.00;67.13;;;;;;;2.52;64.57;103479.72;5051303;28;20076;-70
2023/01/25 06:01:43;;;;;;;113.35;66.43;;;;;;;2.51;65.24;103484.31;5042490;28;20021;-70
2023/01/25 06:04:13;;;;;;;108.55;66.35;;;;;;;2.51;65.13;103476.09;5049366;28;20028;-70
2023/01/25 06:06:40;;;;;;;110.30;67.25;;;;;;;2.54;65.15;103477.69;5047149;28;20013;-70
2023/01/25 06:09:05;;;;;;;109.55;65.80;;;;;;;2.54;64.64;103481.31;5039937;28;20079;-70
2023/01/25 06:11:31;;;;;;;111.57;66.70;;;;;;;2.53;64.65;103478.72;5047194;28;20037;-71
2023/01/25 06:13:59;;;;;;;109.03;65.70;;;;;;;2.52;64.95;103479.72;5046239;28;20354;-71
2023/01/25 06:16:26;;;;;;;107.22;64.35;;;;;;;2.54;65.64;103483.19;5048231;28;20032;-70
2023/01/25 06:18:51;;;;;;;108.13;64.63;;;;;;;2.51;64.85;103484.31;5036774;28;20119;-70
2023/01/25 06:21:17;;;;;;;111.50;66.47;;;;;;;2.52;64.58;103475.09;5031607;28;20037;-70
2023/01/25 06:23:42;;;;;;;110.32;65.80;;;;;;;2.52;64.69;103483.31;5042645;28;20024;-70
2023/01/25 06:26:11;;;;;;;111.68;65.85;;;;;;;2.50;65.41;103479.84;5050968;28;20380;-70
2023/01/25 06:28:36;;;;;;;110.32;64.95;;;;;;;2.46;64.57;103478.38;5050012;28;20154;-71
2023/01/25 06:31:04;;;;;;;105.82;63.72;;;;;;;2.46;65.32;103478.38;5049459;28;20055;-71
2023/01/25 06:33:29;;;;;;;105.93;63.95;;;;;;;2.46;65.62;103475.63;5048604;28;20472;-71
2023/01/25 06:36:03;;;;;;;108.10;65.32;;;;;;;2.45;65.26;103480.25;5040169;28;20072;-69
2023/01/25 06:38:29;;;;;;;110.43;64.85;;;;;;;2.42;64.87;103476.91;5044924;28;20098;-67
2023/01/25 06:40:58;;;;;;;111.90;65.72;;;;;;;2.40;65.61;103474.31;5046549;28;20420;-68
2023/01/25 06:43:23;;;;;;;108.43;66.00;;;;;;;2.43;65.46;103474.00;5038410;28;20067;-67
2023/01/25 06:45:49;;;;;;;108.57;64.80;;;;;;;2.43;64.75;103475.88;5034063;28;20112;-68
2023/01/25 06:48:14;;;;;;;106.07;63.50;;;;;;;2.45;65.13;103476.63;5030348;28;20147;-71
2023/01/25 06:50:39;;;;;;;105.63;63.00;;;;;;;2.48;64.60;103470.91;5032831;28;20381;-66
2023/01/25 06:53:05;;;;;;;109.00;65.47;;;;;;;2.44;65.45;103470.28;5033190;28;20029;-66
2023/01/25 06:55:30;;;;;;;112.15;64.88;;;;;;;2.45;65.26;103476.63;5049560;28;20516;-66
2023/01/25 06:57:59;;;;;;;109.93;65.35;;;;;;;2.44;64.46;103474.91;5042303;28;20124;-67
2023/01/25 07:00:24;;;;;;;108.07;63.88;;;;;;;2.44;64.59;103472.16;5043562;28;20025;-66
2023/01/25 07:02:49;;;;;;;109.32;64.65;;;;;;;2.44;64.59;103470.28;5047118;28;20086;-65
2023/01/25 07:05:17;;;;;;;107.40;64.28;;;;;;;2.43;65.04;103465.78;5044486;28;20838;-66
2023/01/25 07:07:46;;;;;;;105.85;63.42;;;;;;;2.41;65.19;103472.44;5034505;28;20055;-66
2023/01/25 07:10:11;;;;;;;104.15;62.05;;;;;;;2.42;64.74;103464.06;5046827;28;20037;-65
2023/01/25 07:12:40;;;;;;;102.13;63.70;;;;;;;2.44;65.42;103472.16;5002231;28;20380;-66
2023/01/25 07:15:06;;;;;;;105.47;62.78;;;;;;;2.38;65.14;103470.81;5004528;28;20063;-67
2023/01/25 07:17:31;;;;;;;101.35;62.22;;;;;;;2.40;65.51;103470.72;5044241;28;20068;-68
2023/01/25 07:19:56;;;;;;;103.65;62.53;;;;;;;2.40;64.90;103478.94;5037847;28;20032;-69
2023/01/25 07:22:22;;;;;;;105.28;62.03;;;;;;;2.38;64.92;103473.56;5041772;28;20471;-70
2023/01/25 07:24:50;;;;;;;100.90;61.60;;;;;;;2.36;65.34;103475.59;5042610;28;20036;-69
2023/01/25 07:27:16;;;;;;;101.13;60.58;;;;;;;2.34;65.23;103472.09;5031895;28;20040;-69
2023/01/25 07:29:42;;;;;;;102.85;63.40;;;;;;;2.32;65.16;103465.91;5024349;28;20025;-69
2023/01/25 07:32:07;;;;;;;104.40;62.80;;;;;;;2.32;64.81;103471.38;5037682;28;20024;-69
2023/01/25 07:34:32;;;;;;;103.20;62.17;;;;;;;2.34;65.43;103473.97;5040453;28;20041;-70
2023/01/25 07:36:58;;;;;;;106.80;62.92;;;;;;;2.29;65.47;103457.94;5043689;28;20036;-67
2023/01/25 07:39:25;;;;;;;104.90;61.53;;;;;;;2.28;65.22;103458.94;5038316;28;20112;-72
2023/01/25 07:41:50;;;;;;;101.15;60.63;;;;;;;2.28;65.59;103458.06;5044952;28;20033;-67
2023/01/25 07:44:15;;;;;;;100.43;60.05;;;;;;;2.26;65.24;103460.94;5045828;28;20093;-68
2023/01/25 07:46:41;;;;;;;102.68;60.55;;;;;;;2.28;65.11;103453.47;5038915;28;20146;-69
2023/01/25 07:49:06;;;;;;;102.57;61.42;;;;;;;2.27;65.52;103450.84;5038972;28;20716;-71
2023/01/25 07:51:31;;;;;;;98.80;60.15;;;;;;;2.27;65.97;103453.59;5051486;28;20025;-69
2023/01/25 07:54:02;;;;;;;100.20;60.25;;;;;;;2.25;65.51;103459.22;5050602;28;20747;-70
2023/01/25 07:56:31;;;;;;;101.50;60.42;;;;;;;2.28;66.17;103450.72;5039042;28;20040;-70
2023/01/25 07:58:58;;;;;;;103.03;61.15;;;;;;;2.31;65.50;103455.06;5030195;28;20044;-71
2023/01/25 08:01:26;;;;;;;104.43;60.92;;;;;;;2.33;66.26;103455.81;5043932;28;20040;-70
2023/01/25 08:03:53;;;;;;;103.38;60.55;;;;;;;2.33;65.92;103455.81;5050325;28;20068;-75
2023/01/25 08:06:26;;;;;;;104.50;61.13;;;;;;;2.36;65.01;103470.09;5050543;28;20033;-74
2023/01/25 08:08:52;;;;;;;102.78;61.22;;;;;;;2.34;65.27;103455.66;5047893;28;20033;-75
2023/01/25 08:11:21;;;;;;;103.00;60.80;;;;;;;2.36;64.83;103452.78;5045593;28;20029;-68
2023/01/25 08:13:48;;;;;;;110.05;64.75;;;;;;;2.36;64.48;103452.78;5032450;28;20083;-70
2023/01/25 08:16:17;;;;;;;107.63;63.30;;;;;;;2.36;64.94;103447.31;5045729;28;20814;-69
2023/01/25 08:18:49;;;;;;;101.93;61.20;;;;;;;2.36;65.05;103452.78;5047619;28;20044;-71
2023/01/25 08:21:15;;;;;;;107.32;62.85;;;;;;;2.36;64.95;103450.06;5050667;28;20082;-71
2023/01/25 08:23:41;;;;;;;104.60;61.78;;;;;;;2.32;65.38;103449.44;5050811;28;20033;-71
2023/01/25 08:26:09;;;;;;;104.13;60.83;;;;;;;2.31;64.71;103446.81;5045678;28;20044;-72
2023/01/25 08:28:34;;;;;;;107.68;62.97;;;;;;;2.30;64.83;103445.09;5048110;28;20039;-71
2023/01/25 08:31:17;;;;;;;104.43;61.85;;;;;;;2.30;65.75;103440.47;5041603;28;20120;-71
2023/01/25 08:33:45;;;;;;;104.43;60.08;;;;;;;2.30;65.82;103436.88;5049160;28;20052;-76
2023/01/25 08:36:11;;;;;;;106.22;60.95;;;;;;;2.31;65.21;103438.59;5051240;28;20060;-74
2023/01/25 08:38:37;;;;;;;105.82;61.05;;;;;;;2.29;65.44;103438.75;5051446;28;20037;-70
2023/01/25 08:41:10;;;;;;;102.32;59.45;;;;;;;2.30;64.92;103445.97;5050381;28;20020;-69
2023/01/25 08:43:35;;;;;;;106.93;62.65;;;;;;;2.26;64.42;103438.16;5045846;28;20053;-73
2023/01/25 08:46:04;;;;;;;101.43;61.20;;;;;;;2.27;65.45;103439.88;5043438;28;20179;-71
2023/01/25 08:48:30;;;;;;;103.10;61.67;;;;;;;2.27;65.09;103442.63;5047994;28;20025;-72
2023/01/25 08:50:55;;;;;;;102.85;60.20;;;;;;;2.28;65.00;103455.31;5052906;28;20089;-72
2023/01/25 08:53:21;;;;;;;105.80;61.70;;;;;;;2.30;64.76;103448.69;5051277;28;20041;-72
2023/01/25 08:55:48;;;;;;;103.25;61.28;;;;;;;2.28;65.08;103441.59;5048687;28;20036;-72
2023/01/25 08:58:15;;;;;;;102.47;61.03;;;;;;;2.29;64.84;103435.16;5045590;28;20043;-71
2023/01/25 09:00:42;;;;;;;101.75;59.47;;;;;;;2.31;64.68;103430.38;5052284;28;20040;-72
2023/01/25 09:03:13;;;;;;;99.30;58.83;;;;;;;2.31;64.26;103436.72;5054693;28;20079;-72
2023/01/25 09:05:40;;;;;;;100.50;59.57;;;;;;;2.32;64.36;103433.00;5052691;28;20025;-72
2023/01/25 09:08:08;;;;;;;100.05;58.33;;;;;;;2.29;64.55;103436.00;5052695;28;20082;-72
2023/01/25 09:10:34;;;;;;;100.88;59.50;;;;;;;2.28;64.98;103416.94;5052043;28;20433;-72
2023/01/25 09:13:02;;;;;;;105.13;62.95;;;;;;;2.26;64.49;103428.06;5051082;28;20025;-72
2023/01/25 09:15:30;;;;;;;109.10;61.08;;;;;;;2.20;65.09;103417.63;5052500;28;20035;-72
2023/01/25 09:17:58;;;;;;;102.45;61.80;;;;;;;2.24;64.52;103426.44;5039430;28;20473;-71
2023/01/25 09:20:24;;;;;;;103.53;60.17;;;;;;;2.21;64.74;103420.25;5033814;28;20056;-71
2023/01/25 09:22:49;;;;;;;107.00;62.15;;;;;;;2.19;65.58;103414.03;5031295;28;20067;-72
2023/01/25 09:25:17;;;;;;;102.85;61.20;;;;;;;2.19;65.11;103416.75;5030624;28;20025;-73
2023/01/25 09:27:42;;;;;;;101.93;60.15;;;;;;;2.20;64.54;103413.03;5030400;28;20108;-72
2023/01/25 09:30:09;;;;;;;105.68;61.08;;;;;;;2.21;65.03;103417.50;5031238;28;20116;-72
2023/01/25 09:32:35;;;;;;;105.70;62.40;;;;;;;2.19;65.49;103421.38;5047039;28;20037;-72
2023/01/25 09:35:00;;;;;;;102.28;60.58;;;;;;;2.20;64.99;103415.78;5044817;28;20017;-72
2023/01/25 09:37:26;;;;;;;104.50;60.53;;;;;;;2.22;64.92;103413.75;5013449;28;1056022;-72
2023/01/25 09:39:51;;;;;;;110.93;62.85;;;;;;;2.21;64.51;103413.91;5051098;28;20033;-73
2023/01/25 09:42:31;;;;;;;108.00;61.97;;;;;;;2.20;64.47;103418.50;5051473;28;20033;-72
2023/01/25 09:45:15;;;;;;;104.72;62.03;;;;;;;2.27;65.14;103409.72;5050669;28;20075;-72
2023/01/25 09:48:09;;;;;;;103.30;58.97;;;;;;;2.24;64.71;103412.75;5050917;28;20484;-72
2023/01/25 09:50:59;;;;;;;106.82;61.65;;;;;;;2.25;65.63;103409.03;5038987;28;20044;-72
2023/01/25 09:53:37;;;;;;;108.63;61.75;;;;;;;2.24;64.94;103408.16;5030246;28;20444;-72
2023/01/25 09:56:16;;;;;;;110.53;62.30;;;;;;;2.22;65.82;103411.00;5031433;28;20029;-71
2023/01/25 09:58:47;;;;;;;108.22;62.05;;;;;;;2.26;65.42;103411.63;5031127;28;20033;-73
2023/01/25 10:01:27;;;;;;;111.88;62.25;;;;;;;2.27;65.79;103402.38;5033157;28;20032;-72
2023/01/25 10:04:03;;;;;;;109.53;63.35;;;;;;;2.27;65.29;103413.34;5032079;28;20116;-72
2023/01/25 10:06:38;;;;;;;115.30;63.30;;;;;;;2.27;65.35;103413.34;5031737;28;20915;-71
2023/01/25 10:09:38;;;;;;;119.82;63.00;;;;;;;2.30;65.22;103412.22;5035035;28;20550;-72
2023/01/25 10:12:15;;;;;;;114.65;61.83;;;;;;;2.24;66.14;103410.00;5032307;28;20049;-72
2023/01/25 10:14:43;;;;;;;114.78;63.40;;;;;;;2.22;65.84;103400.06;5032402;28;20025;-72
2023/01/25 10:17:34;;;;;;;114.07;62.03;;;;;;;2.32;65.82;103388.25;5051207;28;20035;-72
2023/01/25 10:20:30;;;;;;;115.70;63.83;;;;;;;2.32;65.73;103385.53;5053315;28;20037;-71
2023/01/25 10:23:23;;;;;;;114.38;63.13;;;;;;;2.33;65.62;103388.16;5052699;28;20020;-72
2023/01/25 10:26:00;;;;;;;121.22;64.43;;;;;;;2.32;65.18;103386.41;5046934;28;20039;-72
2023/01/25 10:28:38;;;;;;;119.28;63.03;;;;;;;2.28;65.17;103381.31;5051688;28;20029;-72
2023/01/25 10:31:17;;;;;;;116.65;63.20;;;;;;;2.32;65.70;103388.25;5052516;28;20090;-72
2023/01/25 10:33:44;;;;;;;118.65;64.50;;;;;;;2.29;65.71;103374.84;5050966;28;20040;-72
2023/01/25 10:36:16;;;;;;;113.50;61.95;;;;;;;2.28;65.03;103373.09;5053028;28;20081;-72
2023/01/25 10:38:45;;;;;;;114.00;63.25;;;;;;;2.26;64.78;103373.25;5049577;28;20049;-73
2023/01/25 10:41:54;;;;;;;114.18;63.10;;;;;;;2.31;65.63;103362.72;5042529;28;20044;-72
2023/01/25 10:44:27;;;;;;;116.28;63.83;;;;;;;2.27;64.83;103357.66;5052148;28;20029;-71
2023/01/25 10:47:18;;;;;;;112.50;62.95;;;;;;;2.32;65.01;103350.78;5048162;28;20492;-71
2023/01/25 10:49:56;;;;;;;114.80;63.20;;;;;;;2.30;65.13;103340.97;5049248;28;20048;-73
2023/01/25 10:52:30;;;;;;;114.47;62.10;;;;;;;2.31;64.73;103334.47;5050223;28;20427;-72
2023/01/25 10:55:16;;;;;;;118.05;63.53;;;;;;;2.33;65.35;103324.25;5040993;28;20029;-64
2023/01/25 10:57:47;;;;;;;113.60;61.17;;;;;;;2.34;65.92;103321.34;5031552;28;20044;-75
2023/01/25 11:00:28;;;;;;;111.28;61.97;;;;;;;2.35;65.24;103324.97;5045378;28;20622;-71
2023/01/25 11:02:54;;;;;;;110.78;62.45;;;;;;;2.32;65.25;103317.00;5040455;28;20036;-72
2023/01/25 11:05:30;;;;;;;115.78;65.07;;;;;;;2.31;64.86;103309.78;5050666;28;20025;-73
2023/01/25 11:07:57;;;;;;;113.47;62.45;;;;;;;2.30;64.74;103308.06;5046453;28;20039;-66
2023/01/25 11:10:37;;;;;;;111.03;63.13;;;;;;;2.28;65.74;103293.63;5036669;28;20051;-62
2023/01/25 11:13:16;;;;;;;110.20;60.97;;;;;;;2.31;65.39;103296.97;5037285;28;20025;-74
2023/01/25 11:15:49;;;;;;;108.82;61.13;;;;;;;2.27;65.40;103287.28;5036800;28;20119;-73